8CO2 weather

William Leon Schawo Airport
Briggsdale, Colorado, United States

Public forecast

Using degrees Fahrenheit for public forecast. Weather courtesy of forecast.io.

METAR (pilot weather report)

Closest report is Greeley–Weld County Airport, 23.9 nm (44.3 km) SW. Retrieved 2019/08/19 13:56 UTC (14 minutes ago):

KGXY 191356Z AUTO 28006KT 10SM 18/07 A3008 RMK AO2 SLP147 T01780072 $

TAF (pilot weather forecast)

Closest forecast is Cheyenne Regional Jerry Olson Field, 40.0 nm (74.0 km) NW. Retrieved 2019/08/19 12:27 UTC (2 hours ago):

TAF KCYS 191124Z 1912/2012 29009KT P6SM SKC FM191500 27010G20KT P6SM SKC FM192100 24015KT P6SM SCT150 FM200600 15007KT P6SM SCT250